• Join FlightAware (Why Join?)
  • Login
  • US Flag 
01:26AM EDT


 

Airport Tracker/Info


-or-


 

Live Flight TrackerFlight Track Log ✈ N762NC ✈ 14-Aug-2013 ✈ KORD - KATL

Flight Track Log - Related Links

Times and Time Zones

All times are in EDT time to prevent confusion due to time zone crossing. See the N762NC flight status page for this flight to view local times or setup timezone preferences in your user account.

Time Position Orientation Groundspeed Altitude Reporting Facility
EDT Latitude Longitude Course Direction KTS MPH feet Rate Location/Type
09:28PM 41.9333 -87.9000 166° South 150 173 2,000  Level Chicago TRACON
09:29PM 41.8833 -87.9000 180° South 216 249 4,000 2,160 Climbing Chicago TRACON
09:30PM 41.8167 -87.8833 169° South 266 306 6,400 2,820 Climbing Chicago TRACON
09:31PM 41.5590 -87.7087 168° South  Level Estimated
09:31PM 41.7203 -87.8756 177° South 272 313 10,300  Level Chicago Center
09:32PM 41.4533 -87.6597 180° South  Level Estimated
09:32PM 41.6431 -87.8428 162° South 288 331 12,400  Level Chicago Center
09:33PM 41.3476 -87.6108 166° South  Level Estimated
09:33PM 41.5547 -87.8036 162° South 333 383 13,900  Level Chicago Center
09:35PM 41.4544 -87.7597 162° South 367 422 15,400 1,740 Climbing Chicago Center
09:36PM 41.3489 -87.7125 161° South 391 450 17,600 1,800 Climbing Chicago Center
09:37PM 41.2417 -87.6636 161° South 402 463 19,200 1,560 Climbing Chicago Center
09:38PM 41.1275 -87.6231 165° South 421 484 20,900 1,680 Climbing Chicago Center
09:39PM 40.9867 -87.5769 166° South 436 502 22,700 1,560 Climbing Chicago Center
09:40PM 40.8669 -87.5378 166° South 443 510 24,200 1,260 Climbing Chicago Center
09:41PM 40.7433 -87.4961 166° South 453 521 25,400 1,140 Climbing Chicago Center
09:42PM 40.6183 -87.4558 166° South 460 529 26,600 1,020 Climbing Chicago Center
09:43PM 40.4853 -87.4242 170° South 480 552 27,600 1,140 Climbing Chicago Center
09:44PM 40.3456 -87.3964 171° South 485 558 29,000 660 Climbing Chicago Center
09:45PM 40.2081 -87.3683 171° South 500 575 29,000  Level Chicago Center
09:45PM 40.1228 -87.3503 171° South 503 579 29,000  Level Indianapolis Center
09:46PM 39.9572 -87.3247 173° South 503 579 29,000  Level Indianapolis Center
09:48PM 39.8206 -87.3108 176° South 499 574 29,000  Level Indianapolis Center
09:49PM 39.6842 -87.3039 178° South 495 570 29,000  Level Indianapolis Center
09:50PM 39.5483 -87.2958 177° South 494 568 29,000  Level Indianapolis Center
09:51PM 39.4125 -87.2850 176° South 493 567 29,000  Level Indianapolis Center
09:52PM 39.2797 -87.2356 164° South 500 575 29,000  Level Indianapolis Center
09:53PM 39.1483 -87.1858 164° South 495 570 29,000  Level Indianapolis Center
09:54PM 38.9947 -87.1156 160° South 498 573 29,000  Level Indianapolis Center
09:55PM 38.8658 -87.0494 158° South 496 571 29,000  Level Indianapolis Center
09:57PM 38.6689 -86.9861 166° South  Level FlightAware Approximate
10:04PM 37.9169 -86.7473 166° South  Level FlightAware Approximate
10:05PM 37.8094 -86.7136 166° South  Level FlightAware Approximate
10:06PM 37.7019 -86.6799 166° South  Level FlightAware Approximate
10:07PM 37.5944 -86.6464 166° South  Level FlightAware Approximate
10:08PM 37.4869 -86.6130 166° South  Level FlightAware Approximate
10:09PM 37.3794 -86.5797 166° South  Level FlightAware Approximate
10:10PM 37.2719 -86.5463 166° South  Level FlightAware Approximate
10:11PM 37.1646 -86.5121 166° South  Level FlightAware Approximate
10:12PM 37.0572 -86.4779 166° South  Level FlightAware Approximate
10:13PM 36.9499 -86.4439 166° South  Level FlightAware Approximate
10:14PM 36.8403 -86.4295 178° South  Level FlightAware Approximate
10:15PM 36.7296 -86.4240 178° South  Level FlightAware Approximate
10:16PM 36.6190 -86.4184 178° South  Level FlightAware Approximate
10:17PM 36.5084 -86.4122 177° South  Level FlightAware Approximate
10:18PM 36.3978 -86.4057 177° South  Level FlightAware Approximate
10:19PM 36.2872 -86.3991 177° South  Level FlightAware Approximate
10:20PM 36.1766 -86.3926 177° South  Level FlightAware Approximate
10:21PM 36.0660 -86.3861 177° South  Level FlightAware Approximate
10:22PM 35.9554 -86.3796 177° South  Level FlightAware Approximate
10:23PM 35.8448 -86.3732 177° South  Level FlightAware Approximate
10:24PM 35.7342 -86.3667 177° South  Level FlightAware Approximate
10:25PM 35.6436 -86.2887 145° Southeast  Level FlightAware Approximate
10:26PM 35.5531 -86.2103 145° Southeast  Level FlightAware Approximate
10:27PM 35.4619 -86.1331 147° Southeast  Level FlightAware Approximate
10:28PM 35.3687 -86.0598 147° Southeast  Level FlightAware Approximate
10:29PM 35.2754 -85.9866 147° Southeast  Level FlightAware Approximate
10:30PM 35.1808 -85.9163 149° Southeast  Level FlightAware Approximate
10:31PM 35.0856 -85.8471 149° Southeast  Level FlightAware Approximate
10:32PM 34.9934 -85.7723 146° Southeast  Level FlightAware Approximate
10:33PM 34.9030 -85.6943 144° Southeast  Level FlightAware Approximate
10:34PM 34.8123 -85.6170 148° Southeast  Level FlightAware Approximate
10:35PM 34.7188 -85.5448 148° Southeast  Level FlightAware Approximate
10:36PM 34.6253 -85.4727 148° Southeast  Level FlightAware Approximate
10:37PM 34.5317 -85.4008 148° Southeast  Level FlightAware Approximate
10:38PM 34.4381 -85.3291 148° Southeast  Level FlightAware Approximate
10:39PM 34.3441 -85.2581 148° Southeast  Level FlightAware Approximate
10:40PM 34.2498 -85.1879 149° Southeast  Level FlightAware Approximate
10:41PM 34.1544 -85.1198 149° Southeast  Level FlightAware Approximate
10:42PM 34.0841 -85.0179 126° Southeast  Level FlightAware Approximate
10:43PM 34.0085 -84.9202 133° Southeast  Level FlightAware Approximate
10:44PM 33.9328 -84.8229 133° Southeast  Level FlightAware Approximate
10:45PM 33.8570 -84.7256 133° Southeast  Level FlightAware Approximate
10:46PM 33.7813 -84.6283 133° Southeast  Level FlightAware Approximate
10:47PM 33.7022 -84.5355 140° Southeast  Level FlightAware Approximate
10:48PM 33.6235 -84.4424 132° Southeast  Level FlightAware Approximate
10:49PM 33.6333 -84.4167 North  Level FlightAware Approximate
10:50PM 33.6367 -84.4279 North  Level Estimated
10:51PM 33.6367 -84.4279 North  Level Estimated
10:52PM 33.6367 -84.4279 North  Level Estimated
10:53PM 33.6367 -84.4279 North  Level Estimated
10:54PM 33.6367 -84.4279 North  Level Estimated
10:55PM 33.6367 -84.4279 North  Level Estimated
10:56PM 33.6367 -84.4279 North  Level Estimated
10:57PM 33.6367 -84.4279 North  Level Estimated